sensor_id;sensor_type;location;lat;lon;timestamp;pressure;altitude;pressure_sealevel;temperature;humidity
72124;BME280;63818;37.134;-8.548;2023-04-07T00:01:31;101162.7;;;19.4;39.5
72124;BME280;63818;37.134;-8.548;2023-04-07T00:06:19;101154.8;;;19.3;39.2
72124;BME280;63818;37.134;-8.548;2023-04-07T00:11:08;101154.7;;;19.2;39.1
72124;BME280;63818;37.134;-8.548;2023-04-07T00:15:54;101155.6;;;19.3;39.6
72124;BME280;63818;37.134;-8.548;2023-04-07T00:20:40;101140.8;;;19.3;40.0
72124;BME280;63818;37.134;-8.548;2023-04-07T00:25:26;101139.6;;;19.3;40.3
72124;BME280;63818;37.134;-8.548;2023-04-07T00:35:03;101141.5;;;19.1;39.7
72124;BME280;63818;37.134;-8.548;2023-04-07T00:39:51;101143.2;;;19.0;39.0
72124;BME280;63818;37.134;-8.548;2023-04-07T00:44:38;101138.2;;;19.0;39.0
72124;BME280;63818;37.134;-8.548;2023-04-07T00:49:26;101135.8;;;19.0;39.2
72124;BME280;63818;37.134;-8.548;2023-04-07T00:54:15;101135.8;;;19.0;39.1
72124;BME280;63818;37.134;-8.548;2023-04-07T00:59:02;101129.9;;;19.0;39.2
72124;BME280;63818;37.134;-8.548;2023-04-07T01:03:54;101128.3;;;18.9;39.3
72124;BME280;63818;37.134;-8.548;2023-04-07T01:08:53;101122.8;;;18.9;39.2
72124;BME280;63818;37.134;-8.548;2023-04-07T01:13:45;101113.8;;;18.9;39.7
72124;BME280;63818;37.134;-8.548;2023-04-07T01:18:42;101104.7;;;18.8;39.9
72124;BME280;63818;37.134;-8.548;2023-04-07T01:24:02;101107.0;;;18.8;39.6
72124;BME280;63818;37.134;-8.548;2023-04-07T01:28:56;101106.2;;;18.8;39.6
72124;BME280;63818;37.134;-8.548;2023-04-07T01:33:47;101101.9;;;18.8;39.5
72124;BME280;63818;37.134;-8.548;2023-04-07T01:38:35;101092.9;;;18.8;39.5
72124;BME280;63818;37.134;-8.548;2023-04-07T01:43:27;101097.6;;;18.8;39.8
72124;BME280;63818;37.134;-8.548;2023-04-07T01:48:15;101093.2;;;18.8;39.6
72124;BME280;63818;37.134;-8.548;2023-04-07T01:53:04;101091.6;;;18.7;39.6
72124;BME280;63818;37.134;-8.548;2023-04-07T01:57:52;101091.2;;;18.7;40.0
72124;BME280;63818;37.134;-8.548;2023-04-07T02:02:40;101081.8;;;18.7;40.7
72124;BME280;63818;37.134;-8.548;2023-04-07T02:07:36;101089.9;;;18.7;42.0
72124;BME280;63818;37.134;-8.548;2023-04-07T02:12:25;101079.3;;;18.6;42.8
72124;BME280;63818;37.134;-8.548;2023-04-07T02:17:15;101082.3;;;18.6;43.6
72124;BME280;63818;37.134;-8.548;2023-04-07T02:22:01;101086.8;;;18.5;44.1
72124;BME280;63818;37.134;-8.548;2023-04-07T02:26:48;101085.5;;;18.5;44.6
72124;BME280;63818;37.134;-8.548;2023-04-07T02:31:37;101088.6;;;18.4;45.0
72124;BME280;63818;37.134;-8.548;2023-04-07T02:36:23;101086.3;;;18.5;45.0
72124;BME280;63818;37.134;-8.548;2023-04-07T02:41:09;101084.1;;;18.4;45.2
72124;BME280;63818;37.134;-8.548;2023-04-07T02:45:55;101078.6;;;18.3;45.1
72124;BME280;63818;37.134;-8.548;2023-04-07T02:50:41;101073.1;;;18.3;45.7
72124;BME280;63818;37.134;-8.548;2023-04-07T02:55:29;101068.5;;;18.2;45.6
72124;BME280;63818;37.134;-8.548;2023-04-07T03:00:15;101067.4;;;18.2;45.5
72124;BME280;63818;37.134;-8.548;2023-04-07T03:05:03;101073.3;;;18.2;45.9
72124;BME280;63818;37.134;-8.548;2023-04-07T03:14:41;101071.4;;;18.1;47.0
72124;BME280;63818;37.134;-8.548;2023-04-07T03:19:27;101076.9;;;18.0;47.3
72124;BME280;63818;37.134;-8.548;2023-04-07T03:24:26;101079.6;;;18.0;47.0
72124;BME280;63818;37.134;-8.548;2023-04-07T03:29:12;101067.1;;;18.0;47.0
72124;BME280;63818;37.134;-8.548;2023-04-07T03:33:59;101076.9;;;18.0;46.9
72124;BME280;63818;37.134;-8.548;2023-04-07T03:38:45;101079.6;;;18.0;46.7
72124;BME280;63818;37.134;-8.548;2023-04-07T03:43:35;101077.2;;;18.0;45.8
72124;BME280;63818;37.134;-8.548;2023-04-07T03:48:26;101070.5;;;17.9;45.5
72124;BME280;63818;37.134;-8.548;2023-04-07T03:53:12;101070.2;;;17.9;44.9
72124;BME280;63818;37.134;-8.548;2023-04-07T03:58:00;101061.7;;;18.0;45.1
72124;BME280;63818;37.134;-8.548;2023-04-07T04:02:46;101063.4;;;17.9;44.8
72124;BME280;63818;37.134;-8.548;2023-04-07T04:07:32;101066.6;;;17.9;44.1
72124;BME280;63818;37.134;-8.548;2023-04-07T04:12:18;101065.0;;;17.9;43.5
72124;BME280;63818;37.134;-8.548;2023-04-07T04:17:04;101058.0;;;17.9;43.3
72124;BME280;63818;37.134;-8.548;2023-04-07T04:26:42;101064.4;;;17.8;43.3
72124;BME280;63818;37.134;-8.548;2023-04-07T04:31:28;101060.8;;;17.8;43.1
72124;BME280;63818;37.134;-8.548;2023-04-07T04:36:15;101053.5;;;17.8;42.9
72124;BME280;63818;37.134;-8.548;2023-04-07T04:41:01;101048.1;;;17.8;42.3
72124;BME280;63818;37.134;-8.548;2023-04-07T04:45:48;101053.9;;;17.8;42.5
72124;BME280;63818;37.134;-8.548;2023-04-07T04:50:38;101053.9;;;17.8;42.2
72124;BME280;63818;37.134;-8.548;2023-04-07T04:55:27;101055.6;;;17.9;42.3
72124;BME280;63818;37.134;-8.548;2023-04-07T05:00:24;101059.1;;;17.9;42.1
72124;BME280;63818;37.134;-8.548;2023-04-07T05:05:10;101049.4;;;17.9;42.1
72124;BME280;63818;37.134;-8.548;2023-04-07T05:09:56;101053.0;;;17.9;42.2
72124;BME280;63818;37.134;-8.548;2023-04-07T05:14:42;101048.4;;;17.9;41.9
72124;BME280;63818;37.134;-8.548;2023-04-07T05:19:30;101044.5;;;17.9;42.1
72124;BME280;63818;37.134;-8.548;2023-04-07T05:24:16;101029.7;;;17.9;41.5
72124;BME280;63818;37.134;-8.548;2023-04-07T05:29:04;101035.8;;;17.9;42.4
72124;BME280;63818;37.134;-8.548;2023-04-07T05:33:50;101030.6;;;17.8;41.9
72124;BME280;63818;37.134;-8.548;2023-04-07T05:38:36;101029.8;;;17.8;42.1
72124;BME280;63818;37.134;-8.548;2023-04-07T05:43:22;101023.2;;;17.8;42.4
72124;BME280;63818;37.134;-8.548;2023-04-07T05:48:09;101020.8;;;17.8;42.9
72124;BME280;63818;37.134;-8.548;2023-04-07T05:57:46;101019.6;;;17.6;44.3
72124;BME280;63818;37.134;-8.548;2023-04-07T06:02:35;101032.7;;;17.6;47.2
72124;BME280;63818;37.134;-8.548;2023-04-07T06:07:22;101045.7;;;17.5;50.1
72124;BME280;63818;37.134;-8.548;2023-04-07T06:12:09;101052.1;;;17.5;50.9
72124;BME280;63818;37.134;-8.548;2023-04-07T06:16:54;101054.2;;;17.2;51.3
72124;BME280;63818;37.134;-8.548;2023-04-07T06:21:41;101052.5;;;17.2;50.3
72124;BME280;63818;37.134;-8.548;2023-04-07T06:26:29;101063.0;;;17.1;50.9
72124;BME280;63818;37.134;-8.548;2023-04-07T06:31:15;101063.8;;;16.9;49.9
72124;BME280;63818;37.134;-8.548;2023-04-07T06:36:06;101062.9;;;16.9;50.2
72124;BME280;63818;37.134;-8.548;2023-04-07T06:40:52;101068.9;;;17.0;49.9
72124;BME280;63818;37.134;-8.548;2023-04-07T06:45:41;101073.1;;;16.9;49.7
72124;BME280;63818;37.134;-8.548;2023-04-07T06:50:26;101083.0;;;16.9;49.5
72124;BME280;63818;37.134;-8.548;2023-04-07T06:55:13;101083.0;;;16.9;49.6
72124;BME280;63818;37.134;-8.548;2023-04-07T07:00:02;101097.2;;;17.0;50.0
72124;BME280;63818;37.134;-8.548;2023-04-07T07:05:06;101097.5;;;17.0;49.6
72124;BME280;63818;37.134;-8.548;2023-04-07T07:09:53;101111.4;;;17.0;50.0
72124;BME280;63818;37.134;-8.548;2023-04-07T07:14:41;101110.4;;;17.1;49.6
72124;BME280;63818;37.134;-8.548;2023-04-07T07:19:27;101110.8;;;17.1;48.3
72124;BME280;63818;37.134;-8.548;2023-04-07T07:24:13;101115.1;;;17.1;47.2
72124;BME280;63818;37.134;-8.548;2023-04-07T07:28:59;101121.9;;;17.2;46.4
72124;BME280;63818;37.134;-8.548;2023-04-07T07:33:51;101117.0;;;17.2;45.9
72124;BME280;63818;37.134;-8.548;2023-04-07T07:38:39;101125.4;;;17.3;45.5
72124;BME280;63818;37.134;-8.548;2023-04-07T07:43:27;101116.6;;;17.3;45.2
72124;BME280;63818;37.134;-8.548;2023-04-07T07:48:13;101124.9;;;17.4;45.4
72124;BME280;63818;37.134;-8.548;2023-04-07T07:52:59;101128.3;;;17.5;44.7
72124;BME280;63818;37.134;-8.548;2023-04-07T07:57:45;101116.4;;;17.5;44.2
72124;BME280;63818;37.134;-8.548;2023-04-07T08:02:33;101121.6;;;17.6;44.5
72124;BME280;63818;37.134;-8.548;2023-04-07T08:07:19;101124.5;;;17.6;44.7
72124;BME280;63818;37.134;-8.548;2023-04-07T08:12:05;101114.5;;;17.7;45.0
72124;BME280;63818;37.134;-8.548;2023-04-07T08:16:57;101126.4;;;17.7;45.8
72124;BME280;63818;37.134;-8.548;2023-04-07T08:21:44;101119.9;;;17.8;45.4
72124;BME280;63818;37.134;-8.548;2023-04-07T08:26:30;101120.4;;;17.8;45.2
72124;BME280;63818;37.134;-8.548;2023-04-07T08:31:16;101110.9;;;17.9;44.9
72124;BME280;63818;37.134;-8.548;2023-04-07T08:36:11;101118.3;;;17.9;47.1
72124;BME280;63818;37.134;-8.548;2023-04-07T08:41:01;101128.0;;;17.9;51.7
72124;BME280;63818;37.134;-8.548;2023-04-07T08:45:50;101132.4;;;18.0;52.7
72124;BME280;63818;37.134;-8.548;2023-04-07T08:50:43;101114.7;;;18.0;48.0
72124;BME280;63818;37.134;-8.548;2023-04-07T08:55:29;101110.6;;;18.1;46.9
72124;BME280;63818;37.134;-8.548;2023-04-07T09:00:20;101097.5;;;18.1;44.0
72124;BME280;63818;37.134;-8.548;2023-04-07T09:05:07;101086.5;;;18.2;42.1
72124;BME280;63818;37.134;-8.548;2023-04-07T09:14:44;101079.9;;;18.4;34.0
72124;BME280;63818;37.134;-8.548;2023-04-07T09:19:32;101063.0;;;18.5;31.1
72124;BME280;63818;37.134;-8.548;2023-04-07T09:24:22;101061.8;;;18.6;29.9
72124;BME280;63818;37.134;-8.548;2023-04-07T09:29:17;101059.3;;;18.7;29.3
72124;BME280;63818;37.134;-8.548;2023-04-07T09:34:23;101054.8;;;18.8;27.6
72124;BME280;63818;37.134;-8.548;2023-04-07T09:39:15;101058.0;;;18.8;28.1
72124;BME280;63818;37.134;-8.548;2023-04-07T09:44:07;101052.0;;;18.9;26.7
72124;BME280;63818;37.134;-8.548;2023-04-07T09:49:04;101062.1;;;18.9;26.8
72124;BME280;63818;37.134;-8.548;2023-04-07T09:53:50;101053.0;;;19.0;26.4
72124;BME280;63818;37.134;-8.548;2023-04-07T09:58:37;101046.9;;;19.1;27.1
72124;BME280;63818;37.134;-8.548;2023-04-07T10:03:23;101049.3;;;19.1;27.2
72124;BME280;63818;37.134;-8.548;2023-04-07T10:08:18;101046.7;;;19.1;27.3
72124;BME280;63818;37.134;-8.548;2023-04-07T10:13:05;101064.7;;;19.2;27.7
72124;BME280;63818;37.134;-8.548;2023-04-07T10:17:52;101051.6;;;19.2;27.0
72124;BME280;63818;37.134;-8.548;2023-04-07T10:22:40;101052.4;;;19.3;27.8
72124;BME280;63818;37.134;-8.548;2023-04-07T10:27:34;101057.1;;;19.3;28.2
72124;BME280;63818;37.134;-8.548;2023-04-07T10:32:24;101063.4;;;19.3;29.1
72124;BME280;63818;37.134;-8.548;2023-04-07T10:37:11;101069.4;;;19.4;29.1
72124;BME280;63818;37.134;-8.548;2023-04-07T10:41:57;101067.4;;;19.4;28.9
72124;BME280;63818;37.134;-8.548;2023-04-07T10:53:31;101060.8;;;19.5;28.3
72124;BME280;63818;37.134;-8.548;2023-04-07T10:58:18;101068.2;;;19.5;28.1
72124;BME280;63818;37.134;-8.548;2023-04-07T11:03:10;101064.7;;;19.6;28.0
72124;BME280;63818;37.134;-8.548;2023-04-07T11:07:57;101067.5;;;19.6;29.3
72124;BME280;63818;37.134;-8.548;2023-04-07T11:13:01;101077.7;;;19.6;31.9
72124;BME280;63818;37.134;-8.548;2023-04-07T11:18:07;101086.7;;;19.6;33.3
72124;BME280;63818;37.134;-8.548;2023-04-07T11:23:00;101088.6;;;19.6;34.6
72124;BME280;63818;37.134;-8.548;2023-04-07T11:27:46;101083.5;;;19.6;34.6
72124;BME280;63818;37.134;-8.548;2023-04-07T11:32:31;101059.4;;;19.6;31.5
72124;BME280;63818;37.134;-8.548;2023-04-07T11:37:21;101070.4;;;19.7;32.6
72124;BME280;63818;37.134;-8.548;2023-04-07T11:42:07;101078.2;;;19.7;33.9
72124;BME280;63818;37.134;-8.548;2023-04-07T11:46:54;101079.7;;;19.7;35.0
72124;BME280;63818;37.134;-8.548;2023-04-07T11:51:42;101075.0;;;19.7;35.6
72124;BME280;63818;37.134;-8.548;2023-04-07T11:56:31;101067.0;;;19.7;33.8
72124;BME280;63818;37.134;-8.548;2023-04-07T12:01:22;101065.4;;;19.7;34.9
72124;BME280;63818;37.134;-8.548;2023-04-07T12:06:08;101065.4;;;19.7;34.6
72124;BME280;63818;37.134;-8.548;2023-04-07T12:11:04;101065.4;;;19.7;34.1
72124;BME280;63818;37.134;-8.548;2023-04-07T12:15:50;101070.5;;;19.7;34.3
72124;BME280;63818;37.134;-8.548;2023-04-07T12:20:38;101076.3;;;19.7;35.2
72124;BME280;63818;37.134;-8.548;2023-04-07T12:25:24;101088.8;;;19.8;37.0
72124;BME280;63818;37.134;-8.548;2023-04-07T12:30:14;101087.2;;;19.7;36.6
72124;BME280;63818;37.134;-8.548;2023-04-07T12:35:00;101084.9;;;19.7;35.1
72124;BME280;63818;37.134;-8.548;2023-04-07T12:39:46;101083.3;;;19.7;36.0
72124;BME280;63818;37.134;-8.548;2023-04-07T12:44:37;101082.9;;;19.7;36.3
72124;BME280;63818;37.134;-8.548;2023-04-07T12:49:26;101086.5;;;19.7;35.7
72124;BME280;63818;37.134;-8.548;2023-04-07T12:54:12;101088.8;;;19.8;37.2
72124;BME280;63818;37.134;-8.548;2023-04-07T12:59:07;101099.0;;;19.8;39.4
72124;BME280;63818;37.134;-8.548;2023-04-07T13:03:53;101080.4;;;19.8;39.9
72124;BME280;63818;37.134;-8.548;2023-04-07T13:08:41;101076.8;;;19.8;39.6
72124;BME280;63818;37.134;-8.548;2023-04-07T13:13:26;101078.1;;;19.8;40.3
72124;BME280;63818;37.134;-8.548;2023-04-07T13:18:13;101075.0;;;19.8;40.8
72124;BME280;63818;37.134;-8.548;2023-04-07T13:23:02;101063.7;;;19.9;41.9
72124;BME280;63818;37.134;-8.548;2023-04-07T13:27:48;101074.2;;;19.9;41.4
72124;BME280;63818;37.134;-8.548;2023-04-07T13:32:34;101074.2;;;19.9;42.2
72124;BME280;63818;37.134;-8.548;2023-04-07T13:37:22;101078.6;;;19.9;42.9
72124;BME280;63818;37.134;-8.548;2023-04-07T13:42:08;101070.8;;;19.9;42.0
72124;BME280;63818;37.134;-8.548;2023-04-07T13:46:57;101077.5;;;19.9;41.6
72124;BME280;63818;37.134;-8.548;2023-04-07T13:51:46;101060.4;;;20.0;41.8
72124;BME280;63818;37.134;-8.548;2023-04-07T13:56:53;101051.5;;;20.0;41.5
72124;BME280;63818;37.134;-8.548;2023-04-07T14:01:39;101036.7;;;20.0;41.9
72124;BME280;63818;37.134;-8.548;2023-04-07T14:06:28;101027.8;;;20.1;41.1
72124;BME280;63818;37.134;-8.548;2023-04-07T14:11:17;101019.4;;;20.1;41.1
72124;BME280;63818;37.134;-8.548;2023-04-07T14:16:03;101027.7;;;20.2;41.2
72124;BME280;63818;37.134;-8.548;2023-04-07T14:20:49;101025.3;;;20.2;42.1
72124;BME280;63818;37.134;-8.548;2023-04-07T14:25:35;101021.5;;;20.2;42.7
72124;BME280;63818;37.134;-8.548;2023-04-07T14:30:22;101020.4;;;20.3;43.2
72124;BME280;63818;37.134;-8.548;2023-04-07T14:35:08;101009.5;;;20.3;43.2
72124;BME280;63818;37.134;-8.548;2023-04-07T14:39:59;100999.8;;;20.3;42.7
72124;BME280;63818;37.134;-8.548;2023-04-07T14:44:45;100996.4;;;20.4;42.0
72124;BME280;63818;37.134;-8.548;2023-04-07T14:49:32;100984.4;;;20.4;40.8
72124;BME280;63818;37.134;-8.548;2023-04-07T14:54:18;100969.7;;;20.5;38.3
72124;BME280;63818;37.134;-8.548;2023-04-07T14:59:04;100965.2;;;20.6;37.2
72124;BME280;63818;37.134;-8.548;2023-04-07T15:03:53;100967.1;;;20.6;37.7
72124;BME280;63818;37.134;-8.548;2023-04-07T15:08:39;100957.5;;;20.7;37.8
72124;BME280;63818;37.134;-8.548;2023-04-07T15:13:28;100947.5;;;20.8;37.7
72124;BME280;63818;37.134;-8.548;2023-04-07T15:18:14;100948.4;;;20.9;37.0
72124;BME280;63818;37.134;-8.548;2023-04-07T15:23:00;100945.0;;;21.0;37.4
72124;BME280;63818;37.134;-8.548;2023-04-07T15:27:46;100932.3;;;21.1;37.1
72124;BME280;63818;37.134;-8.548;2023-04-07T15:32:37;100933.1;;;21.1;36.8
72124;BME280;63818;37.134;-8.548;2023-04-07T15:37:27;100932.2;;;21.4;37.2
72124;BME280;63818;37.134;-8.548;2023-04-07T15:42:14;100934.0;;;21.7;36.4
72124;BME280;63818;37.134;-8.548;2023-04-07T15:47:00;100933.6;;;22.0;36.8
72124;BME280;63818;37.134;-8.548;2023-04-07T15:51:46;100931.4;;;22.3;37.0
72124;BME280;63818;37.134;-8.548;2023-04-07T16:01:32;100935.2;;;22.8;37.2
72124;BME280;63818;37.134;-8.548;2023-04-07T16:06:18;100930.2;;;22.9;37.0
72124;BME280;63818;37.134;-8.548;2023-04-07T16:11:04;100925.1;;;23.0;37.0
72124;BME280;63818;37.134;-8.548;2023-04-07T16:15:53;100920.1;;;23.0;36.9
72124;BME280;63818;37.134;-8.548;2023-04-07T16:20:39;100915.0;;;23.1;36.6
72124;BME280;63818;37.134;-8.548;2023-04-07T16:25:29;100913.9;;;23.2;37.0
72124;BME280;63818;37.134;-8.548;2023-04-07T16:30:16;100923.3;;;23.3;36.3
72124;BME280;63818;37.134;-8.548;2023-04-07T16:35:05;100926.8;;;23.4;35.9
72124;BME280;63818;37.134;-8.548;2023-04-07T16:39:53;100913.9;;;23.4;35.8
72124;BME280;63818;37.134;-8.548;2023-04-07T16:44:39;100927.6;;;23.5;35.8
72124;BME280;63818;37.134;-8.548;2023-04-07T16:49:27;100916.3;;;23.5;34.6
72124;BME280;63818;37.134;-8.548;2023-04-07T16:54:13;100922.2;;;23.5;34.5
72124;BME280;63818;37.134;-8.548;2023-04-07T16:58:59;100915.1;;;23.5;34.4
72124;BME280;63818;37.134;-8.548;2023-04-07T17:03:47;100910.4;;;23.5;34.1
72124;BME280;63818;37.134;-8.548;2023-04-07T17:08:34;100907.3;;;23.5;33.8
72124;BME280;63818;37.134;-8.548;2023-04-07T17:13:19;100892.0;;;23.5;33.8
72124;BME280;63818;37.134;-8.548;2023-04-07T17:18:06;100899.5;;;23.5;33.9
72124;BME280;63818;37.134;-8.548;2023-04-07T17:22:57;100905.3;;;23.5;34.3
72124;BME280;63818;37.134;-8.548;2023-04-07T17:27:43;100891.6;;;23.5;33.0
72124;BME280;63818;37.134;-8.548;2023-04-07T17:32:30;100889.6;;;23.4;33.2
72124;BME280;63818;37.134;-8.548;2023-04-07T17:37:16;100891.2;;;23.4;34.7
72124;BME280;63818;37.134;-8.548;2023-04-07T17:42:02;100892.3;;;23.3;33.6
72124;BME280;63818;37.134;-8.548;2023-04-07T17:46:49;100885.3;;;23.2;34.4
72124;BME280;63818;37.134;-8.548;2023-04-07T17:51:35;100885.7;;;23.2;34.8
72124;BME280;63818;37.134;-8.548;2023-04-07T17:56:21;100893.9;;;23.0;34.9
72124;BME280;63818;37.134;-8.548;2023-04-07T18:01:08;100898.9;;;22.9;34.9
72124;BME280;63818;37.134;-8.548;2023-04-07T18:05:54;100894.9;;;22.8;35.3
72124;BME280;63818;37.134;-8.548;2023-04-07T18:10:40;100892.2;;;22.7;35.7
72124;BME280;63818;37.134;-8.548;2023-04-07T18:15:27;100891.7;;;22.6;36.2
72124;BME280;63818;37.134;-8.548;2023-04-07T18:20:13;100904.6;;;22.6;36.7
72124;BME280;63818;37.134;-8.548;2023-04-07T18:24:59;100892.8;;;22.5;37.0
72124;BME280;63818;37.134;-8.548;2023-04-07T18:29:54;100900.6;;;22.4;37.4
72124;BME280;63818;37.134;-8.548;2023-04-07T18:34:41;100904.9;;;22.3;37.8
72124;BME280;63818;37.134;-8.548;2023-04-07T18:39:28;100910.3;;;22.3;38.3
72124;BME280;63818;37.134;-8.548;2023-04-07T18:44:14;100916.9;;;22.2;39.3
72124;BME280;63818;37.134;-8.548;2023-04-07T18:49:01;100914.1;;;22.1;39.9
72124;BME280;63818;37.134;-8.548;2023-04-07T18:53:47;100920.7;;;22.0;40.2
72124;BME280;63818;37.134;-8.548;2023-04-07T18:58:33;100913.2;;;22.0;40.6
72124;BME280;63818;37.134;-8.548;2023-04-07T19:03:19;100906.9;;;22.0;40.4
72124;BME280;63818;37.134;-8.548;2023-04-07T19:08:05;100913.9;;;21.9;40.5
72124;BME280;63818;37.134;-8.548;2023-04-07T19:12:51;100922.9;;;21.9;40.4
72124;BME280;63818;37.134;-8.548;2023-04-07T19:17:38;100913.8;;;21.8;40.3
72124;BME280;63818;37.134;-8.548;2023-04-07T19:22:24;100924.8;;;21.8;40.3
72124;BME280;63818;37.134;-8.548;2023-04-07T19:27:10;100925.5;;;21.8;40.2
72124;BME280;63818;37.134;-8.548;2023-04-07T19:31:57;100932.9;;;21.8;40.4
72124;BME280;63818;37.134;-8.548;2023-04-07T19:36:43;100936.0;;;21.7;40.4
72124;BME280;63818;37.134;-8.548;2023-04-07T19:41:29;100957.1;;;21.7;40.3
72124;BME280;63818;37.134;-8.548;2023-04-07T19:46:15;100963.8;;;21.7;40.2
72124;BME280;63818;37.134;-8.548;2023-04-07T19:51:01;100967.2;;;21.7;40.4
72124;BME280;63818;37.134;-8.548;2023-04-07T19:55:47;100971.9;;;21.6;40.5
72124;BME280;63818;37.134;-8.548;2023-04-07T20:00:35;100966.8;;;21.6;40.9
72124;BME280;63818;37.134;-8.548;2023-04-07T20:05:23;100977.7;;;21.6;40.5
72124;BME280;63818;37.134;-8.548;2023-04-07T20:10:09;100964.4;;;21.5;41.0
72124;BME280;63818;37.134;-8.548;2023-04-07T20:14:56;100973.8;;;21.5;40.3
72124;BME280;63818;37.134;-8.548;2023-04-07T20:19:42;100967.9;;;21.5;39.8
72124;BME280;63818;37.134;-8.548;2023-04-07T20:24:33;100978.4;;;21.5;39.7
72124;BME280;63818;37.134;-8.548;2023-04-07T20:29:19;100978.0;;;21.5;39.3
72124;BME280;63818;37.134;-8.548;2023-04-07T20:34:05;100992.4;;;21.5;39.1
72124;BME280;63818;37.134;-8.548;2023-04-07T20:38:53;100988.5;;;21.5;39.3
72124;BME280;63818;37.134;-8.548;2023-04-07T20:43:39;101000.6;;;21.5;39.2
72124;BME280;63818;37.134;-8.548;2023-04-07T20:48:26;101013.1;;;21.4;39.1
72124;BME280;63818;37.134;-8.548;2023-04-07T20:53:14;101011.9;;;21.4;39.0
72124;BME280;63818;37.134;-8.548;2023-04-07T20:58:00;101017.3;;;21.4;39.1
72124;BME280;63818;37.134;-8.548;2023-04-07T21:02:46;101018.8;;;21.3;39.2
72124;BME280;63818;37.134;-8.548;2023-04-07T21:07:34;101036.4;;;21.3;39.2
72124;BME280;63818;37.134;-8.548;2023-04-07T21:12:20;101036.8;;;21.4;39.3
72124;BME280;63818;37.134;-8.548;2023-04-07T21:17:06;101031.3;;;21.3;39.6
72124;BME280;63818;37.134;-8.548;2023-04-07T21:21:53;101034.8;;;21.3;39.8
72124;BME280;63818;37.134;-8.548;2023-04-07T21:26:39;101045.7;;;21.2;39.4
72124;BME280;63818;37.134;-8.548;2023-04-07T21:31:25;101046.0;;;21.2;39.6
72124;BME280;63818;37.134;-8.548;2023-04-07T21:36:11;101053.4;;;21.2;39.7
72124;BME280;63818;37.134;-8.548;2023-04-07T21:40:57;101051.5;;;21.2;39.6
72124;BME280;63818;37.134;-8.548;2023-04-07T21:45:44;101052.9;;;21.1;39.1
72124;BME280;63818;37.134;-8.548;2023-04-07T21:50:30;101053.3;;;21.1;38.8
72124;BME280;63818;37.134;-8.548;2023-04-07T21:55:16;101049.0;;;21.1;38.5
72124;BME280;63818;37.134;-8.548;2023-04-07T22:00:03;101058.3;;;21.1;39.7
72124;BME280;63818;37.134;-8.548;2023-04-07T22:04:49;101065.7;;;21.1;41.0
72124;BME280;63818;37.134;-8.548;2023-04-07T22:09:35;101061.0;;;21.0;42.0
72124;BME280;63818;37.134;-8.548;2023-04-07T22:14:21;101061.3;;;21.0;42.1
72124;BME280;63818;37.134;-8.548;2023-04-07T22:19:07;101048.0;;;21.0;41.2
72124;BME280;63818;37.134;-8.548;2023-04-07T22:23:56;101044.0;;;20.9;40.5
72124;BME280;63818;37.134;-8.548;2023-04-07T22:28:44;101051.4;;;20.9;40.5
72124;BME280;63818;37.134;-8.548;2023-04-07T22:33:30;101044.3;;;20.8;40.8
72124;BME280;63818;37.134;-8.548;2023-04-07T22:38:16;101041.9;;;20.8;42.8
72124;BME280;63818;37.134;-8.548;2023-04-07T22:43:02;101045.0;;;20.8;43.4
72124;BME280;63818;37.134;-8.548;2023-04-07T22:47:48;101043.3;;;20.7;43.6
72124;BME280;63818;37.134;-8.548;2023-04-07T22:52:34;101051.9;;;20.7;43.7
72124;BME280;63818;37.134;-8.548;2023-04-07T22:57:20;101043.2;;;20.6;43.8
72124;BME280;63818;37.134;-8.548;2023-04-07T23:02:08;101043.5;;;20.5;43.9
72124;BME280;63818;37.134;-8.548;2023-04-07T23:06:55;101043.1;;;20.5;43.3
72124;BME280;63818;37.134;-8.548;2023-04-07T23:11:41;101034.4;;;20.5;42.9
72124;BME280;63818;37.134;-8.548;2023-04-07T23:16:27;101040.3;;;20.5;42.7
72124;BME280;63818;37.134;-8.548;2023-04-07T23:21:15;101044.5;;;20.5;42.7
72124;BME280;63818;37.134;-8.548;2023-04-07T23:26:01;101045.6;;;20.4;42.9
72124;BME280;63818;37.134;-8.548;2023-04-07T23:30:47;101035.7;;;20.3;43.1
72124;BME280;63818;37.134;-8.548;2023-04-07T23:35:34;101049.0;;;20.3;42.9
72124;BME280;63818;37.134;-8.548;2023-04-07T23:40:20;101046.9;;;20.3;43.0
72124;BME280;63818;37.134;-8.548;2023-04-07T23:45:07;101042.9;;;20.2;43.1
72124;BME280;63818;37.134;-8.548;2023-04-07T23:49:52;101050.3;;;20.2;43.1
72124;BME280;63818;37.134;-8.548;2023-04-07T23:54:38;101039.0;;;20.2;43.2
72124;BME280;63818;37.134;-8.548;2023-04-07T23:59:24;101038.9;;;20.1;43.3
